Time;durP1;ratioP1;P1;durP2;ratioP2;P2;SDS_P1;SDS_P2;PMS_P1;PMS_P2;Temp;Humidity;BMP_temperature;BMP_pressure;BME280_temperature;BME280_humidity;BME280_pressure;Samples;Min_cycle;Max_cycle;Signal;HPM_P1;HPM_P2
2022/03/21 00:01:56;;;;;;;;;;;;;;;11.39;55.25;101859.03;6118474;23;6949;-75
2022/03/21 00:04:23;;;;;;;;;;;;;;;11.38;55.46;101854.69;6143426;23;7116;-75
2022/03/21 00:06:49;;;;;;;;;;;;;;;11.38;55.47;101860.72;6144269;23;6744;-75
2022/03/21 00:09:14;;;;;;;;;;;;;;;11.38;55.40;101859.81;6094616;23;6943;-75
2022/03/21 00:11:40;;;;;;;;;;;;;;;11.37;55.23;101858.94;6144926;23;7136;-75
2022/03/21 00:14:07;;;;;;;;;;;;;;;11.36;55.24;101858.84;6144627;23;6743;-75
2022/03/21 00:16:37;;;;;;;;;;;;;;;11.35;55.85;101851.94;6144597;23;6774;-75
2022/03/21 00:19:03;;;;;;;;;;;;;;;11.34;55.51;101858.72;6143168;23;6786;-75
2022/03/21 00:21:29;;;;;;;;;;;;;;;11.34;55.59;101866.41;6118892;23;6767;-75
2022/03/21 00:23:55;;;;;;;;;;;;;;;11.35;55.32;101857.06;6120081;23;7009;-75
2022/03/21 00:26:21;;;;;;;;;;;;;;;11.37;55.68;101856.38;6095626;23;7149;-75
2022/03/21 00:28:47;;;;;;;;;;;;;;;11.37;55.32;101855.47;6142214;23;7131;-75
2022/03/21 00:31:13;;;;;;;;;;;;;;;11.37;54.95;101858.03;6142180;23;6797;-75
2022/03/21 00:33:39;;;;;;;;;;;;;;;11.39;55.43;101859.03;6143623;23;6791;-75
2022/03/21 00:36:08;;;;;;;;;;;;;;;11.42;55.11;101869.53;6141617;23;6943;-76
2022/03/21 00:38:37;;;;;;;;;;;;;;;11.41;55.22;101861.72;6164773;23;6786;-75
2022/03/21 00:41:04;;;;;;;;;;;;;;;11.42;55.07;101874.66;6165319;23;7001;-75
2022/03/21 00:43:30;;;;;;;;;;;;;;;11.41;55.04;101857.50;6141094;23;7151;-75
2022/03/21 00:46:00;;;;;;;;;;;;;;;11.42;54.81;101866.97;6115835;23;7145;-75
2022/03/21 00:48:28;;;;;;;;;;;;;;;11.43;54.98;101866.19;6142655;23;7006;-75
2022/03/21 00:50:58;;;;;;;;;;;;;;;11.45;55.09;101867.16;6144511;23;6995;-75
2022/03/21 00:53:25;;;;;;;;;;;;;;;11.47;55.18;101868.16;6143321;23;7003;-75
2022/03/21 00:55:52;;;;;;;;;;;;;;;11.49;54.77;101871.75;6143969;23;6865;-75
2022/03/21 00:58:19;;;;;;;;;;;;;;;11.51;54.48;101871.81;6143565;23;7020;-75
2022/03/21 01:00:45;;;;;;;;;;;;;;;11.50;55.15;101870.94;6118626;23;6865;-75
2022/03/21 01:03:12;;;;;;;;;;;;;;;11.50;54.82;101868.38;6118182;23;6892;-75
2022/03/21 01:05:38;;;;;;;;;;;;;;;11.49;54.74;101879.44;6119173;23;6786;-75
2022/03/21 01:08:04;;;;;;;;;;;;;;;11.49;55.19;101879.44;6139100;23;6774;-75
2022/03/21 01:10:31;;;;;;;;;;;;;;;11.48;54.93;101877.63;6137039;23;6959;-75
2022/03/21 01:12:57;;;;;;;;;;;;;;;11.47;55.19;101877.53;6112491;23;6941;-75
2022/03/21 01:15:26;;;;;;;;;;;;;;;11.46;55.16;101881.78;6136311;23;7167;-75
2022/03/21 01:17:54;;;;;;;;;;;;;;;11.47;54.93;101878.41;6138434;23;6870;-75
2022/03/21 01:20:22;;;;;;;;;;;;;;;11.47;54.83;101883.56;6110668;23;6958;-75
2022/03/21 01:22:49;;;;;;;;;;;;;;;11.46;54.90;101879.22;6136850;23;7041;-75
2022/03/21 01:25:16;;;;;;;;;;;;;;;11.46;54.98;101881.78;6138136;23;6947;-75
2022/03/21 01:27:42;;;;;;;;;;;;;;;11.44;54.79;101878.22;6138821;23;6963;-75
2022/03/21 01:30:11;;;;;;;;;;;;;;;11.42;55.06;101877.22;6135964;23;6766;-75
2022/03/21 01:32:42;;;;;;;;;;;;;;;11.39;54.74;101883.03;6134517;23;7002;-75
2022/03/21 01:35:09;;;;;;;;;;;;;;;11.36;54.95;101880.28;6110001;23;6967;-75
2022/03/21 01:37:35;;;;;;;;;;;;;;;11.34;54.63;101875.81;6132346;23;6849;-75
2022/03/21 01:40:00;;;;;;;;;;;;;;;11.33;54.85;101881.75;6131021;23;7033;-75
2022/03/21 01:42:26;;;;;;;;;;;;;;;11.35;54.71;101877.59;6152136;23;8287;-75
2022/03/21 01:44:55;;;;;;;;;;;;;;;11.33;54.98;101876.59;6135147;23;6988;-75
2022/03/21 01:47:21;;;;;;;;;;;;;;;11.35;54.94;101887.84;6134469;23;6951;-75
2022/03/21 01:49:48;;;;;;;;;;;;;;;11.31;54.76;101878.19;6131744;23;6803;-75
2022/03/21 01:52:15;;;;;;;;;;;;;;;11.29;54.78;101882.28;6127502;23;6783;-74
2022/03/21 01:57:26;;;;;;;;;;;;;;;11.23;54.45;101877.63;6134968;23;6858;-74
2022/03/21 01:59:51;;;;;;;;;;;;;;;11.17;54.80;101877.22;6110332;23;7007;-74
2022/03/21 02:02:17;;;;;;;;;;;;;;;11.14;54.45;101883.03;6132517;23;6960;-74
2022/03/21 02:04:43;;;;;;;;;;;;;;;11.09;54.98;101869.88;6134082;23;6770;-75
2022/03/21 02:07:09;;;;;;;;;;;;;;;11.06;54.88;101869.69;6133606;23;6987;-75
2022/03/21 02:09:35;;;;;;;;;;;;;;;11.05;54.64;101867.88;6133955;23;6917;-75
2022/03/21 02:12:01;;;;;;;;;;;;;;;11.04;54.54;101865.22;6132952;23;6786;-75
2022/03/21 02:14:27;;;;;;;;;;;;;;;11.01;54.68;101871.03;6101297;23;6751;-75
2022/03/21 02:16:53;;;;;;;;;;;;;;;10.97;54.34;101862.22;6121240;23;6945;-75
2022/03/21 02:19:31;;;;;;;;;;;;;;;10.91;54.29;101872.06;6143540;23;6937;-75
2022/03/21 02:22:18;;;;;;;;;;;;;;;10.84;54.60;101864.72;6094103;23;7022;-75
2022/03/21 02:24:45;;;;;;;;;;;;;;;10.74;54.99;101859.72;6118422;23;7161;-75
2022/03/21 02:27:12;;;;;;;;;;;;;;;10.64;54.35;101859.06;6118876;23;7015;-75
2022/03/21 02:29:39;;;;;;;;;;;;;;;10.57;54.66;101867.09;6119581;23;7161;-75
2022/03/21 02:32:06;;;;;;;;;;;;;;;10.49;54.94;101865.66;6091524;23;6767;-75
2022/03/21 02:34:38;;;;;;;;;;;;;;;10.41;55.31;101859.94;6122369;23;6899;-75
2022/03/21 02:37:07;;;;;;;;;;;;;;;10.35;54.65;101865.53;6126246;23;6995;-75
2022/03/21 02:39:36;;;;;;;;;;;;;;;10.34;55.49;101863.75;6123348;23;7018;-75
2022/03/21 02:42:04;;;;;;;;;;;;;;;10.34;54.82;101873.09;6118792;23;7820;-75
2022/03/21 02:44:38;;;;;;;;;;;;;;;10.37;55.20;101873.31;6094805;23;6858;-75
2022/03/21 02:47:05;;;;;;;;;;;;;;;10.38;55.22;101868.31;6144548;23;6926;-76
2022/03/21 02:49:31;;;;;;;;;;;;;;;10.42;55.65;101861.75;6095470;23;6779;-76
2022/03/21 02:51:59;;;;;;;;;;;;;;;10.45;55.08;101867.09;6119894;23;7018;-75
2022/03/21 02:54:26;;;;;;;;;;;;;;;10.47;55.56;101865.53;6120503;23;6930;-75
2022/03/21 02:56:53;;;;;;;;;;;;;;;10.48;55.17;101869.00;6096417;23;6998;-75
2022/03/21 02:59:18;;;;;;;;;;;;;;;10.48;55.44;101866.44;6096498;23;7412;-75
2022/03/21 03:01:44;;;;;;;;;;;;;;;10.46;55.67;101874.00;6121580;23;6854;-75
2022/03/21 03:04:10;;;;;;;;;;;;;;;10.46;55.43;101870.56;6126949;23;6998;-75
2022/03/21 03:06:39;;;;;;;;;;;;;;;10.43;54.67;101863.53;6128553;23;6923;-75
2022/03/21 03:09:07;;;;;;;;;;;;;;;10.41;54.75;101867.66;6101713;23;6966;-75
2022/03/21 03:11:39;;;;;;;;;;;;;;;10.38;54.89;101859.72;6122144;23;6779;-75
2022/03/21 03:14:07;;;;;;;;;;;;;;;10.33;55.14;101864.50;6122580;23;7026;-75
2022/03/21 03:16:34;;;;;;;;;;;;;;;10.27;54.93;101866.63;6120962;23;7959;-75
2022/03/21 03:19:00;;;;;;;;;;;;;;;10.21;55.27;101867.09;6125553;23;7185;-75
2022/03/21 03:21:33;;;;;;;;;;;;;;;10.13;55.18;101866.50;6125116;23;7317;-75
2022/03/21 03:24:01;;;;;;;;;;;;;;;10.07;55.21;101878.88;6127625;23;7141;-75
2022/03/21 03:26:27;;;;;;;;;;;;;;;9.99;55.17;101874.88;6124434;23;6870;-75
2022/03/21 03:28:52;;;;;;;;;;;;;;;9.91;54.66;101878.53;6101395;23;7260;-75
2022/03/21 03:31:19;;;;;;;;;;;;;;;9.80;55.53;101875.16;6099997;23;6866;-75
2022/03/21 03:33:47;;;;;;;;;;;;;;;9.71;55.13;101873.72;6126084;23;6787;-75
2022/03/21 03:36:15;;;;;;;;;;;;;;;9.62;55.93;101864.44;6125916;23;6969;-75
2022/03/21 03:38:42;;;;;;;;;;;;;;;9.50;55.06;101867.84;6127321;23;6870;-75
2022/03/21 03:41:09;;;;;;;;;;;;;;;9.42;55.14;101874.97;6123112;23;6774;-75
2022/03/21 03:43:36;;;;;;;;;;;;;;;9.35;55.07;101866.66;6126122;23;7016;-75
2022/03/21 03:46:03;;;;;;;;;;;;;;;9.28;55.18;101875.53;6128431;23;7287;-75
2022/03/21 03:48:29;;;;;;;;;;;;;;;9.21;55.81;101879.31;6123116;23;6957;-74
2022/03/21 03:50:55;;;;;;;;;;;;;;;9.14;56.44;101882.16;6122775;23;7317;-74
2022/03/21 03:53:21;;;;;;;;;;;;;;;9.09;56.16;101878.38;6123811;23;6774;-74
2022/03/21 03:55:47;;;;;;;;;;;;;;;9.01;56.15;101883.78;6124621;23;6941;-74
2022/03/21 03:58:13;;;;;;;;;;;;;;;8.93;55.85;101882.28;6117755;23;7816;-76
2022/03/21 04:00:39;;;;;;;;;;;;;;;8.85;55.65;101879.13;6113494;23;7015;-75
2022/03/21 04:05:49;;;;;;;;;;;;;;;8.70;55.85;101896.69;6115987;23;6937;-75
2022/03/21 04:08:15;;;;;;;;;;;;;;;8.66;56.76;101902.31;6113005;23;6972;-75
2022/03/21 04:10:41;;;;;;;;;;;;;;;8.62;56.67;101907.97;6135008;23;6783;-75
2022/03/21 04:13:07;;;;;;;;;;;;;;;8.59;56.29;101910.25;6113169;23;6775;-75
2022/03/21 04:15:33;;;;;;;;;;;;;;;8.52;56.35;101902.91;6112621;23;6782;-75
2022/03/21 04:18:00;;;;;;;;;;;;;;;8.49;56.11;101898.38;6110034;23;7302;-75
2022/03/21 04:20:27;;;;;;;;;;;;;;;8.45;56.56;101892.13;6110892;23;6790;-75
2022/03/21 04:22:52;;;;;;;;;;;;;;;8.43;56.53;101897.88;6111214;23;6919;-75
2022/03/21 04:25:18;;;;;;;;;;;;;;;8.40;56.09;101896.00;6109922;23;7076;-75
2022/03/21 04:27:44;;;;;;;;;;;;;;;8.39;57.30;101885.63;6110115;23;6779;-75
2022/03/21 04:30:10;;;;;;;;;;;;;;;8.37;56.79;101890.63;6110659;23;6778;-75
2022/03/21 04:32:35;;;;;;;;;;;;;;;8.36;56.47;101888.84;6111349;23;6770;-75
2022/03/21 04:35:03;;;;;;;;;;;;;;;8.34;56.19;101896.38;6114405;23;6937;-75
2022/03/21 04:37:29;;;;;;;;;;;;;;;8.32;57.20;101904.69;6112519;23;7051;-75
2022/03/21 04:39:54;;;;;;;;;;;;;;;8.29;57.17;101904.44;6109835;23;6799;-75
2022/03/21 04:42:22;;;;;;;;;;;;;;;8.24;56.10;101911.72;6112141;23;6834;-76
2022/03/21 04:44:50;;;;;;;;;;;;;;;8.17;56.81;101910.31;6115330;23;6872;-76
2022/03/21 04:47:17;;;;;;;;;;;;;;;8.13;57.48;101915.06;6114638;23;7189;-75
2022/03/21 04:49:44;;;;;;;;;;;;;;;8.10;57.53;101909.72;6113907;23;6853;-75
2022/03/21 04:52:09;;;;;;;;;;;;;;;8.08;56.61;101914.69;6114329;23;7047;-75
2022/03/21 04:54:35;;;;;;;;;;;;;;;8.05;56.40;101917.00;6111995;23;6969;-75
2022/03/21 04:57:01;;;;;;;;;;;;;;;8.03;57.50;101923.63;6111816;23;8439;-75
2022/03/21 04:59:26;;;;;;;;;;;;;;;8.02;57.06;101924.41;6109693;23;7083;-75
2022/03/21 05:01:52;;;;;;;;;;;;;;;7.99;57.23;101922.47;6108775;23;6770;-75
2022/03/21 05:04:22;;;;;;;;;;;;;;;7.96;57.21;101924.75;6108581;23;6767;-75
2022/03/21 05:06:47;;;;;;;;;;;;;;;7.94;57.38;101920.31;6112373;23;6941;-76
2022/03/21 05:09:13;;;;;;;;;;;;;;;7.92;57.20;101926.19;6108945;23;6951;-75
2022/03/21 05:11:40;;;;;;;;;;;;;;;7.89;57.21;101925.91;6111105;23;6782;-75
2022/03/21 05:14:05;;;;;;;;;;;;;;;7.87;57.91;101924.91;6110866;23;7079;-75
2022/03/21 05:16:32;;;;;;;;;;;;;;;7.83;57.02;101920.31;6112122;23;6909;-75
2022/03/21 05:18:58;;;;;;;;;;;;;;;7.81;57.03;101926.94;6109566;23;6791;-75
2022/03/21 05:21:23;;;;;;;;;;;;;;;7.78;57.26;101925.03;6110939;23;6870;-75
2022/03/21 05:32:01;;;;;;;;;;;;;;;7.70;57.82;101922.59;6111713;23;6949;-75
2022/03/21 05:37:11;;;;;;;;;;;;;;;7.68;57.30;101924.13;6113113;23;7134;-75
2022/03/21 05:40:31;;;;;;;;;;;;;;;7.67;57.56;101923.22;6135359;23;6775;-75
2022/03/21 05:42:25;;;;;;;;;;;;;;;7.66;58.36;101925.66;6091476;23;6815;-75
2022/03/21 05:44:51;;;;;;;;;;;;;;;7.64;57.96;101931.53;6111969;23;7087;-75
2022/03/21 05:47:17;;;;;;;;;;;;;;;7.62;57.86;101930.47;6111881;23;6850;-75
2022/03/21 05:49:43;;;;;;;;;;;;;;;7.60;57.95;101939.69;6114060;23;7249;-75
2022/03/21 05:52:08;;;;;;;;;;;;;;;7.58;57.54;101931.00;6109966;23;7066;-75
2022/03/21 05:54:36;;;;;;;;;;;;;;;7.60;58.52;101943.91;6111257;23;7113;-75
2022/03/21 05:57:02;;;;;;;;;;;;;;;7.61;58.03;101945.69;6114822;23;7141;-75
2022/03/21 06:02:12;;;;;;;;;;;;;;;7.59;58.50;101948.09;6113409;23;6835;-75
2022/03/21 06:04:38;;;;;;;;;;;;;;;7.59;57.71;101950.66;6113021;23;6910;-75
2022/03/21 06:07:04;;;;;;;;;;;;;;;7.60;58.23;101947.34;6113437;23;7040;-75
2022/03/21 06:09:29;;;;;;;;;;;;;;;7.62;57.98;101950.91;6111216;23;7099;-75
2022/03/21 06:11:55;;;;;;;;;;;;;;;7.66;58.72;101953.72;6111919;23;6851;-75
2022/03/21 06:14:21;;;;;;;;;;;;;;;7.69;58.41;101957.44;6114037;23;6962;-75
2022/03/21 06:16:50;;;;;;;;;;;;;;;7.73;58.17;101953.50;6113364;23;6767;-75
2022/03/21 06:19:15;;;;;;;;;;;;;;;7.77;58.56;101955.53;6115435;23;6803;-75
2022/03/21 06:21:41;;;;;;;;;;;;;;;7.83;58.54;101958.63;6113893;23;6770;-75
2022/03/21 06:24:08;;;;;;;;;;;;;;;7.91;59.06;101966.91;6136691;23;6897;-75
2022/03/21 06:26:34;;;;;;;;;;;;;;;8.02;59.04;101966.13;6113580;23;6950;-75
2022/03/21 06:29:00;;;;;;;;;;;;;;;8.16;58.73;101967.28;6112876;23;7239;-75
2022/03/21 06:31:25;;;;;;;;;;;;;;;8.31;59.45;101969.34;6108512;23;7042;-75
2022/03/21 06:33:51;;;;;;;;;;;;;;;8.50;60.33;101968.25;6113121;23;7170;-76
2022/03/21 06:36:17;;;;;;;;;;;;;;;8.68;60.27;101968.91;6112878;23;6834;-75
2022/03/21 06:38:43;;;;;;;;;;;;;;;8.87;59.95;101977.28;6108747;23;6966;-75
2022/03/21 06:41:09;;;;;;;;;;;;;;;9.02;58.90;101977.63;6088591;23;6985;-76
2022/03/21 06:43:35;;;;;;;;;;;;;;;9.16;58.86;101977.81;6112307;23;7039;-75
2022/03/21 06:46:01;;;;;;;;;;;;;;;9.28;60.02;101976.25;6112586;23;7088;-76
2022/03/21 06:48:27;;;;;;;;;;;;;;;9.40;59.04;101972.84;6112870;23;6973;-76
2022/03/21 06:50:55;;;;;;;;;;;;;;;9.50;59.60;101972.78;6087790;23;6771;-75
2022/03/21 06:53:22;;;;;;;;;;;;;;;9.64;58.60;101978.06;6111590;23;7150;-75
2022/03/21 06:55:48;;;;;;;;;;;;;;;9.72;59.15;101977.91;6115344;23;7170;-75
2022/03/21 06:58:15;;;;;;;;;;;;;;;9.83;58.50;101970.16;6112115;23;7944;-75
2022/03/21 07:00:43;;;;;;;;;;;;;;;9.94;59.14;101968.38;6112098;23;7002;-75
2022/03/21 07:03:09;;;;;;;;;;;;;;;10.04;59.16;101981.09;6113167;23;7007;-75
2022/03/21 07:05:36;;;;;;;;;;;;;;;10.14;59.01;101978.50;6087760;23;6770;-75
2022/03/21 07:08:03;;;;;;;;;;;;;;;10.25;58.96;101986.09;6113061;23;6866;-75
2022/03/21 07:10:30;;;;;;;;;;;;;;;10.33;58.69;101984.97;6111265;23;6991;-76
2022/03/21 07:12:55;;;;;;;;;;;;;;;10.42;58.32;101985.66;6111611;23;7816;-75
2022/03/21 07:15:21;;;;;;;;;;;;;;;10.52;58.59;101991.47;6114519;23;6774;-75
2022/03/21 07:17:48;;;;;;;;;;;;;;;10.61;58.66;101989.59;6086929;23;7184;-75
2022/03/21 07:20:14;;;;;;;;;;;;;;;10.69;58.64;101988.50;6111021;23;6851;-75
2022/03/21 07:22:39;;;;;;;;;;;;;;;10.79;58.50;101990.06;6112544;23;7150;-75
2022/03/21 07:25:06;;;;;;;;;;;;;;;10.89;58.37;101993.28;6112965;23;6849;-75
2022/03/21 07:27:33;;;;;;;;;;;;;;;11.00;58.47;101992.38;6087118;23;6943;-75
2022/03/21 07:29:59;;;;;;;;;;;;;;;11.08;58.22;101990.38;6111749;23;6874;-75
2022/03/21 07:32:24;;;;;;;;;;;;;;;11.18;58.25;101999.63;6111363;23;6785;-75
2022/03/21 07:34:50;;;;;;;;;;;;;;;11.26;58.44;101998.50;6111540;23;6762;-75
2022/03/21 07:37:16;;;;;;;;;;;;;;;11.34;57.60;101994.78;6112296;23;6906;-75
2022/03/21 07:39:45;;;;;;;;;;;;;;;11.42;57.66;101992.75;6086746;23;6990;-76
2022/03/21 07:42:15;;;;;;;;;;;;;;;11.50;57.70;101986.50;6109639;23;6952;-76
2022/03/21 07:47:25;;;;;;;;;;;;;;;11.70;57.25;101991.22;6111125;23;6862;-76
2022/03/21 07:49:53;;;;;;;;;;;;;;;11.80;57.61;101985.91;6112362;23;6845;-75
2022/03/21 07:52:21;;;;;;;;;;;;;;;11.92;57.28;101996.16;6112499;23;7250;-75
2022/03/21 07:54:53;;;;;;;;;;;;;;;12.01;57.62;102001.91;6112426;23;6991;-75
2022/03/21 07:57:23;;;;;;;;;;;;;;;12.12;57.44;102000.09;6112495;23;7184;-75
2022/03/21 07:59:51;;;;;;;;;;;;;;;12.24;56.61;102000.00;6111945;23;6787;-75
2022/03/21 08:02:19;;;;;;;;;;;;;;;12.35;56.39;102004.19;6109791;23;6775;-75
2022/03/21 08:04:47;;;;;;;;;;;;;;;12.46;56.30;101998.91;6110535;23;6959;-75
2022/03/21 08:07:14;;;;;;;;;;;;;;;12.57;56.29;101999.56;6110632;23;6910;-75
2022/03/21 08:09:40;;;;;;;;;;;;;;;12.68;56.54;101997.72;6111612;23;7021;-75
2022/03/21 08:12:06;;;;;;;;;;;;;;;12.79;56.42;101999.28;6109058;23;7015;-75
2022/03/21 08:14:32;;;;;;;;;;;;;;;12.91;56.38;102000.06;6134613;23;6778;-75
2022/03/21 08:16:59;;;;;;;;;;;;;;;13.03;55.45;102011.94;6111217;23;6827;-75
2022/03/21 08:19:25;;;;;;;;;;;;;;;13.14;55.43;102016.13;6113473;23;7262;-75
2022/03/21 08:21:55;;;;;;;;;;;;;;;13.25;55.97;102011.63;6112147;23;6890;-75
2022/03/21 08:24:22;;;;;;;;;;;;;;;13.34;55.13;102009.63;6113945;23;6972;-75
2022/03/21 08:26:49;;;;;;;;;;;;;;;13.46;54.63;102009.53;6087955;23;6972;-75
2022/03/21 08:29:15;;;;;;;;;;;;;;;13.56;54.48;102005.81;6112341;23;7177;-75
2022/03/21 08:31:42;;;;;;;;;;;;;;;13.67;54.14;102005.63;6111438;23;6961;-75
2022/03/21 08:34:08;;;;;;;;;;;;;;;13.76;54.27;102016.47;6112975;23;6790;-75
2022/03/21 08:36:35;;;;;;;;;;;;;;;13.87;54.57;102009.38;6112065;23;7146;-75
2022/03/21 08:39:02;;;;;;;;;;;;;;;13.98;54.96;102005.75;6111763;23;6882;-75
2022/03/21 08:41:28;;;;;;;;;;;;;;;14.09;54.47;102008.09;6112824;23;6916;-75
2022/03/21 08:43:54;;;;;;;;;;;;;;;14.21;54.82;102006.25;6114907;23;6857;-76
2022/03/21 08:46:21;;;;;;;;;;;;;;;14.34;54.03;102006.97;6089464;23;6953;-76
2022/03/21 08:51:33;;;;;;;;;;;;;;;14.55;53.38;102010.78;6112345;23;6786;-76
2022/03/21 08:53:59;;;;;;;;;;;;;;;14.66;53.11;102002.75;6113367;23;6877;-76
2022/03/21 08:56:25;;;;;;;;;;;;;;;14.76;52.88;102002.50;6114099;23;6937;-76
2022/03/21 08:58:51;;;;;;;;;;;;;;;14.88;53.15;102006.59;6114019;23;6864;-76
2022/03/21 09:01:17;;;;;;;;;;;;;;;14.98;53.05;102002.03;6111781;23;6912;-76
2022/03/21 09:03:43;;;;;;;;;;;;;;;15.10;52.43;101999.22;6114688;23;6771;-76
2022/03/21 09:06:08;;;;;;;;;;;;;;;15.24;51.88;101997.41;6112480;23;7044;-77
2022/03/21 09:08:35;;;;;;;;;;;;;;;15.35;51.69;102003.13;6115116;23;6775;-76
2022/03/21 09:11:04;;;;;;;;;;;;;;;15.46;51.67;101987.34;6089198;23;6965;-76
2022/03/21 09:13:29;;;;;;;;;;;;;;;15.57;51.57;101990.47;6114118;23;7047;-76
2022/03/21 09:15:55;;;;;;;;;;;;;;;15.67;51.40;101993.66;6088610;23;6869;-76
2022/03/21 09:18:21;;;;;;;;;;;;;;;15.79;51.41;101990.81;6089695;23;6897;-76
2022/03/21 09:20:47;;;;;;;;;;;;;;;15.92;51.04;101997.53;6112757;23;6846;-76
2022/03/21 09:23:13;;;;;;;;;;;;;;;16.05;50.66;101998.16;6087916;23;6958;-76
2022/03/21 09:25:38;;;;;;;;;;;;;;;16.16;50.63;101999.59;6113634;23;6803;-76
2022/03/21 09:28:04;;;;;;;;;;;;;;;16.29;50.45;101997.63;6111837;23;6774;-76
2022/03/21 09:30:30;;;;;;;;;;;;;;;16.42;50.39;101994.84;6112995;23;6854;-76
2022/03/21 09:32:55;;;;;;;;;;;;;;;16.55;50.02;101995.44;6088660;23;7025;-76
2022/03/21 09:35:21;;;;;;;;;;;;;;;16.67;49.84;102001.22;6113004;23;7063;-76
2022/03/21 09:37:47;;;;;;;;;;;;;;;16.79;49.56;101988.84;6088975;23;6948;-76
2022/03/21 09:40:13;;;;;;;;;;;;;;;16.93;50.04;101991.22;6137871;23;6798;-76
2022/03/21 09:42:39;;;;;;;;;;;;;;;17.04;49.38;101986.56;6111816;23;7024;-76
2022/03/21 09:45:06;;;;;;;;;;;;;;;17.14;49.67;101982.72;6112798;23;6989;-76
2022/03/21 09:50:18;;;;;;;;;;;;;;;17.35;49.17;101977.63;6113091;23;7312;-76
2022/03/21 09:52:45;;;;;;;;;;;;;;;17.50;48.66;101977.44;6114096;23;6786;-76
2022/03/21 09:55:10;;;;;;;;;;;;;;;17.63;48.46;101979.72;6137494;23;7050;-76
2022/03/21 09:57:36;;;;;;;;;;;;;;;17.75;48.05;101975.91;6113055;23;6766;-76
2022/03/21 10:00:07;;;;;;;;;;;;;;;17.88;47.97;101980.81;6113350;23;6786;-74
2022/03/21 10:02:34;;;;;;;;;;;;;;;17.99;47.98;101978.66;6112412;23;6791;-74
2022/03/21 10:05:00;;;;;;;;;;;;;;;18.13;47.49;101976.69;6136908;23;6786;-74
2022/03/21 10:07:27;;;;;;;;;;;;;;;18.24;47.03;101976.25;6113379;23;6952;-74
2022/03/21 10:10:16;;;;;;;;;;;;;;;18.33;46.67;101984.41;6113338;23;6955;-75
2022/03/21 10:12:43;;;;;;;;;;;;;;;18.42;46.75;101979.59;6090002;23;6926;-75
2022/03/21 10:15:10;;;;;;;;;;;;;;;18.53;47.01;101977.44;6109883;23;6976;-75
2022/03/21 10:17:37;;;;;;;;;;;;;;;18.67;46.79;101972.81;6110430;23;6775;-75
2022/03/21 10:20:08;;;;;;;;;;;;;;;18.80;46.37;101976.78;6110866;23;7067;-75
2022/03/21 10:22:37;;;;;;;;;;;;;;;18.94;46.21;101969.53;6112706;23;6774;-75
2022/03/21 10:25:10;;;;;;;;;;;;;;;19.10;45.71;101972.72;6113622;23;6811;-75
2022/03/21 10:27:42;;;;;;;;;;;;;;;19.35;46.14;101961.53;6112906;23;7134;-75
2022/03/21 10:30:18;;;;;;;;;;;;;;;20.09;45.53;101970.19;6111034;23;6911;-75
2022/03/21 10:32:50;;;;;;;;;;;;;;;21.26;44.35;101959.03;6114485;23;6783;-75
2022/03/21 10:35:26;;;;;;;;;;;;;;;22.54;42.94;101958.03;6113209;23;6782;-75
2022/03/21 10:37:58;;;;;;;;;;;;;;;23.82;40.58;101952.75;6111866;23;6952;-75
2022/03/21 10:40:47;;;;;;;;;;;;;;;25.07;39.37;101942.44;6087234;23;6904;-75
2022/03/21 10:43:16;;;;;;;;;;;;;;;26.02;37.90;101946.03;6086754;23;6779;-75
2022/03/21 10:45:48;;;;;;;;;;;;;;;26.83;36.28;101943.91;6110562;23;6930;-75
2022/03/21 10:48:25;;;;;;;;;;;;;;;27.36;35.40;101936.25;6112357;23;7030;-75
2022/03/21 10:50:54;;;;;;;;;;;;;;;27.81;35.03;101936.31;6089142;23;6929;-75
2022/03/21 10:53:33;;;;;;;;;;;;;;;28.26;34.88;101936.31;6112682;23;6934;-76
2022/03/21 10:56:09;;;;;;;;;;;;;;;28.66;33.65;101928.28;6111887;23;6786;-76
2022/03/21 10:58:47;;;;;;;;;;;;;;;29.03;33.24;101923.78;6109674;23;7046;-75
2022/03/21 11:01:26;;;;;;;;;;;;;;;29.43;32.16;101923.53;6111716;23;6982;-75
2022/03/21 11:03:57;;;;;;;;;;;;;;;29.82;32.13;101923.28;6112398;23;7124;-75
2022/03/21 11:06:24;;;;;;;;;;;;;;;30.25;31.78;101922.00;6112553;23;7031;-75
2022/03/21 11:08:52;;;;;;;;;;;;;;;30.67;31.18;101915.38;6114210;23;6947;-75
2022/03/21 11:11:19;;;;;;;;;;;;;;;30.98;31.17;101914.97;6110161;23;6779;-75
2022/03/21 11:13:53;;;;;;;;;;;;;;;31.35;30.50;101913.63;6112657;23;7860;-75
2022/03/21 11:16:19;;;;;;;;;;;;;;;31.64;29.83;101913.13;6109492;23;6783;-75
2022/03/21 11:18:48;;;;;;;;;;;;;;;31.94;29.33;101902.91;6114905;23;7056;-75
2022/03/21 11:21:13;;;;;;;;;;;;;;;32.26;28.84;101906.75;6110571;23;6783;-75
2022/03/21 11:23:43;;;;;;;;;;;;;;;32.54;28.97;101906.19;6113543;23;6774;-75
2022/03/21 11:27:11;;;;;;;;;;;;;;;32.74;28.36;101904.94;6111898;23;6858;-75
2022/03/21 11:30:16;;;;;;;;;;;;;;;32.94;27.61;101901.84;6113302;23;6838;-75
2022/03/21 11:33:07;;;;;;;;;;;;;;;33.01;27.01;101899.91;6109009;23;7073;-75
2022/03/21 11:35:34;;;;;;;;;;;;;;;32.93;26.58;101897.44;6111068;23;6791;-75
2022/03/21 11:38:49;;;;;;;;;;;;;;;32.96;26.84;101902.69;6112704;23;6986;-76
2022/03/21 11:41:22;;;;;;;;;;;;;;;33.16;26.52;101896.03;6112175;23;6803;-75
2022/03/21 11:44:03;;;;;;;;;;;;;;;33.36;26.50;101895.56;6111762;23;7024;-75
2022/03/21 11:46:33;;;;;;;;;;;;;;;33.41;26.19;101894.56;6113224;23;6988;-75
2022/03/21 11:49:16;;;;;;;;;;;;;;;33.41;26.22;101891.91;6112784;23;6866;-75
2022/03/21 11:51:44;;;;;;;;;;;;;;;33.29;25.79;101891.31;6115166;23;6794;-75
2022/03/21 11:54:29;;;;;;;;;;;;;;;33.02;25.49;101893.69;6112526;23;7050;-75
2022/03/21 11:57:17;;;;;;;;;;;;;;;32.79;25.32;101895.06;6115204;23;6783;-75
2022/03/21 11:59:43;;;;;;;;;;;;;;;32.67;25.25;101888.25;6099083;23;6866;-76
2022/03/21 12:02:13;;;;;;;;;;;;;;;32.50;25.52;101888.63;6114338;23;7294;-75
2022/03/21 12:04:41;;;;;;;;;;;;;;;32.46;26.06;101889.59;6114818;23;7264;-75
2022/03/21 12:07:13;;;;;;;;;;;;;;;32.43;25.55;101884.34;6115136;23;6851;-75
2022/03/21 12:09:42;;;;;;;;;;;;;;;32.41;25.85;101879.09;6113883;23;7187;-75
2022/03/21 12:12:12;;;;;;;;;;;;;;;32.46;25.72;101884.28;6115398;23;6867;-75
2022/03/21 12:14:54;;;;;;;;;;;;;;;32.55;25.23;101886.75;6138257;23;6919;-75
2022/03/21 12:17:23;;;;;;;;;;;;;;;32.45;25.29;101879.00;6115079;23;6806;-75
2022/03/21 12:19:48;;;;;;;;;;;;;;;32.31;24.99;101874.84;6113170;23;8187;-75
2022/03/21 12:22:29;;;;;;;;;;;;;;;32.09;25.17;101863.78;6112226;23;6949;-75
2022/03/21 12:25:10;;;;;;;;;;;;;;;31.89;24.91;101873.00;6114973;23;6791;-75
2022/03/21 12:27:55;;;;;;;;;;;;;;;31.92;25.47;101872.03;6111973;23;7129;-75
2022/03/21 12:30:22;;;;;;;;;;;;;;;31.76;25.65;101876.72;6112539;23;7116;-76
2022/03/21 12:32:52;;;;;;;;;;;;;;;31.59;25.56;101870.81;6112569;23;6943;-76
2022/03/21 12:35:35;;;;;;;;;;;;;;;31.28;25.12;101871.34;6113678;23;6791;-75
2022/03/21 12:38:03;;;;;;;;;;;;;;;30.55;25.63;101869.66;6112017;23;6783;-75
2022/03/21 12:40:32;;;;;;;;;;;;;;;29.55;26.88;101874.16;6114107;23;6799;-75
2022/03/21 12:43:01;;;;;;;;;;;;;;;28.66;27.03;101867.63;6112407;23;6954;-76
2022/03/21 12:45:32;;;;;;;;;;;;;;;27.94;28.07;101880.09;6114061;23;7296;-76
2022/03/21 12:48:09;;;;;;;;;;;;;;;27.27;28.74;101881.81;6116402;23;6862;-76
2022/03/21 12:50:36;;;;;;;;;;;;;;;26.73;28.85;101872.88;6112657;23;6888;-75
2022/03/21 12:53:12;;;;;;;;;;;;;;;26.28;29.46;101879.69;6112189;23;7848;-76
2022/03/21 12:55:38;;;;;;;;;;;;;;;25.91;30.04;101875.91;6116070;23;6887;-75
2022/03/21 12:58:13;;;;;;;;;;;;;;;25.58;30.41;101872.13;6112866;23;6787;-75
2022/03/21 13:00:42;;;;;;;;;;;;;;;25.30;30.47;101882.38;6111765;23;6782;-75
2022/03/21 13:03:15;;;;;;;;;;;;;;;24.99;30.89;101876.75;6113695;23;6787;-75
2022/03/21 13:11:39;;;;;;;;;;;;;;;24.31;31.61;101881.09;6111431;23;7200;-75
2022/03/21 13:14:14;;;;;;;;;;;;;;;24.23;31.82;101874.00;6089485;23;6862;-75
2022/03/21 13:16:59;;;;;;;;;;;;;;;24.18;31.84;101865.22;6115085;23;6790;-75
2022/03/21 13:19:29;;;;;;;;;;;;;;;24.08;32.04;101873.81;6110458;23;6998;-75
2022/03/21 13:22:07;;;;;;;;;;;;;;;23.97;32.52;101868.34;6109173;23;7982;-75
2022/03/21 13:24:45;;;;;;;;;;;;;;;23.88;32.71;101871.72;6089501;23;6963;-75
2022/03/21 13:27:14;;;;;;;;;;;;;;;23.81;32.17;101875.97;6137306;23;6967;-75
2022/03/21 13:29:51;;;;;;;;;;;;;;;23.78;32.35;101872.44;6112435;23;6782;-75
2022/03/21 13:32:18;;;;;;;;;;;;;;;23.76;32.63;101863.66;6114262;23;6982;-75